sensor_id;sensor_type;location;lat;lon;timestamp;temperature;humidity
5980;DHT22;3016;50.308;8.258;2023-05-07T00:02:03;14.50;1.00
5980;DHT22;3016;50.308;8.258;2023-05-07T00:05:04;14.50;1.00
5980;DHT22;3016;50.308;8.258;2023-05-07T00:08:05;14.40;1.00
5980;DHT22;3016;50.308;8.258;2023-05-07T00:11:06;14.40;1.00
5980;DHT22;3016;50.308;8.258;2023-05-07T00:14:07;14.40;1.00
5980;DHT22;3016;50.308;8.258;2023-05-07T00:17:07;14.40;1.00
5980;DHT22;3016;50.308;8.258;2023-05-07T00:20:08;14.40;1.00
5980;DHT22;3016;50.308;8.258;2023-05-07T00:23:10;14.40;1.00
5980;DHT22;3016;50.308;8.258;2023-05-07T00:26:10;14.40;1.00
5980;DHT22;3016;50.308;8.258;2023-05-07T00:29:11;14.40;1.00
5980;DHT22;3016;50.308;8.258;2023-05-07T00:32:12;14.40;1.00
5980;DHT22;3016;50.308;8.258;2023-05-07T00:35:12;14.40;1.00
5980;DHT22;3016;50.308;8.258;2023-05-07T00:38:13;14.40;1.00
5980;DHT22;3016;50.308;8.258;2023-05-07T00:41:15;14.40;1.00
5980;DHT22;3016;50.308;8.258;2023-05-07T00:44:15;14.40;1.00
5980;DHT22;3016;50.308;8.258;2023-05-07T00:47:16;14.40;1.00
5980;DHT22;3016;50.308;8.258;2023-05-07T00:50:17;14.30;1.00
5980;DHT22;3016;50.308;8.258;2023-05-07T00:53:19;14.30;1.00
5980;DHT22;3016;50.308;8.258;2023-05-07T00:56:21;14.30;1.00
5980;DHT22;3016;50.308;8.258;2023-05-07T00:59:22;14.30;1.00
5980;DHT22;3016;50.308;8.258;2023-05-07T01:02:23;14.30;1.00
5980;DHT22;3016;50.308;8.258;2023-05-07T01:05:24;14.30;1.00
5980;DHT22;3016;50.308;8.258;2023-05-07T01:08:27;14.30;1.00
5980;DHT22;3016;50.308;8.258;2023-05-07T01:11:29;14.30;1.00
5980;DHT22;3016;50.308;8.258;2023-05-07T01:14:30;14.30;1.00
5980;DHT22;3016;50.308;8.258;2023-05-07T01:17:35;14.20;1.00
5980;DHT22;3016;50.308;8.258;2023-05-07T01:20:36;14.20;1.00
5980;DHT22;3016;50.308;8.258;2023-05-07T01:23:37;14.20;1.00
5980;DHT22;3016;50.308;8.258;2023-05-07T01:26:39;14.20;1.00
5980;DHT22;3016;50.308;8.258;2023-05-07T01:29:40;14.20;1.00
5980;DHT22;3016;50.308;8.258;2023-05-07T01:33:06;14.20;1.00
5980;DHT22;3016;50.308;8.258;2023-05-07T01:36:09;14.10;1.00
5980;DHT22;3016;50.308;8.258;2023-05-07T01:39:10;14.10;1.00
5980;DHT22;3016;50.308;8.258;2023-05-07T01:42:12;14.10;1.00
5980;DHT22;3016;50.308;8.258;2023-05-07T01:45:13;14.10;1.00
5980;DHT22;3016;50.308;8.258;2023-05-07T01:48:14;14.10;1.00
5980;DHT22;3016;50.308;8.258;2023-05-07T01:51:15;14.10;1.00
5980;DHT22;3016;50.308;8.258;2023-05-07T01:54:16;14.00;1.00
5980;DHT22;3016;50.308;8.258;2023-05-07T01:57:16;14.00;1.00
5980;DHT22;3016;50.308;8.258;2023-05-07T02:00:17;14.00;1.00
5980;DHT22;3016;50.308;8.258;2023-05-07T02:03:19;14.00;1.00
5980;DHT22;3016;50.308;8.258;2023-05-07T02:06:20;14.00;1.00
5980;DHT22;3016;50.308;8.258;2023-05-07T02:09:21;14.00;1.00
5980;DHT22;3016;50.308;8.258;2023-05-07T02:12:22;14.00;1.00
5980;DHT22;3016;50.308;8.258;2023-05-07T02:15:23;14.00;1.00
5980;DHT22;3016;50.308;8.258;2023-05-07T02:18:24;13.90;1.00
5980;DHT22;3016;50.308;8.258;2023-05-07T02:21:25;13.90;1.00
5980;DHT22;3016;50.308;8.258;2023-05-07T02:24:25;13.90;1.00
5980;DHT22;3016;50.308;8.258;2023-05-07T02:27:26;13.90;1.00
5980;DHT22;3016;50.308;8.258;2023-05-07T02:30:28;13.80;1.00
5980;DHT22;3016;50.308;8.258;2023-05-07T02:33:29;13.80;1.00
5980;DHT22;3016;50.308;8.258;2023-05-07T02:36:30;13.80;1.00
5980;DHT22;3016;50.308;8.258;2023-05-07T02:39:30;13.80;1.00
5980;DHT22;3016;50.308;8.258;2023-05-07T02:42:31;13.70;1.00
5980;DHT22;3016;50.308;8.258;2023-05-07T02:45:32;13.60;1.00
5980;DHT22;3016;50.308;8.258;2023-05-07T02:48:34;13.50;1.00
5980;DHT22;3016;50.308;8.258;2023-05-07T02:51:35;13.50;1.00
5980;DHT22;3016;50.308;8.258;2023-05-07T02:54:35;13.50;1.00
5980;DHT22;3016;50.308;8.258;2023-05-07T02:57:36;13.50;1.00
5980;DHT22;3016;50.308;8.258;2023-05-07T03:00:37;13.50;1.00
5980;DHT22;3016;50.308;8.258;2023-05-07T03:03:37;13.40;1.00
5980;DHT22;3016;50.308;8.258;2023-05-07T03:06:38;13.50;1.00
5980;DHT22;3016;50.308;8.258;2023-05-07T03:09:39;13.50;1.00
5980;DHT22;3016;50.308;8.258;2023-05-07T03:12:39;13.50;1.00
5980;DHT22;3016;50.308;8.258;2023-05-07T03:15:40;13.50;1.00
5980;DHT22;3016;50.308;8.258;2023-05-07T03:18:41;13.50;1.00
5980;DHT22;3016;50.308;8.258;2023-05-07T03:21:42;13.50;1.00
5980;DHT22;3016;50.308;8.258;2023-05-07T03:24:42;13.50;1.00
5980;DHT22;3016;50.308;8.258;2023-05-07T03:27:43;13.40;1.00
5980;DHT22;3016;50.308;8.258;2023-05-07T03:30:44;13.40;1.00
5980;DHT22;3016;50.308;8.258;2023-05-07T03:33:53;13.30;1.40
5980;DHT22;3016;50.308;8.258;2023-05-07T03:36:54;13.30;2.60
5980;DHT22;3016;50.308;8.258;2023-05-07T03:39:56;13.30;3.10
5980;DHT22;3016;50.308;8.258;2023-05-07T03:42:56;13.30;3.30
5980;DHT22;3016;50.308;8.258;2023-05-07T03:45:57;13.30;3.80
5980;DHT22;3016;50.308;8.258;2023-05-07T03:48:58;13.30;3.10
5980;DHT22;3016;50.308;8.258;2023-05-07T03:52:00;13.30;2.50
5980;DHT22;3016;50.308;8.258;2023-05-07T03:55:01;13.20;2.10
5980;DHT22;3016;50.308;8.258;2023-05-07T03:58:01;13.20;3.90
5980;DHT22;3016;50.308;8.258;2023-05-07T04:01:02;13.20;4.70
5980;DHT22;3016;50.308;8.258;2023-05-07T04:04:04;13.10;6.40
5980;DHT22;3016;50.308;8.258;2023-05-07T04:07:04;13.10;7.40
5980;DHT22;3016;50.308;8.258;2023-05-07T04:10:05;13.10;6.80
5980;DHT22;3016;50.308;8.258;2023-05-07T04:13:06;13.10;6.80
5980;DHT22;3016;50.308;8.258;2023-05-07T04:16:08;13.00;7.60
5980;DHT22;3016;50.308;8.258;2023-05-07T04:19:09;13.00;8.00
5980;DHT22;3016;50.308;8.258;2023-05-07T04:22:10;13.00;8.30
5980;DHT22;3016;50.308;8.258;2023-05-07T04:25:11;13.00;7.50
5980;DHT22;3016;50.308;8.258;2023-05-07T04:28:12;13.00;7.40
5980;DHT22;3016;50.308;8.258;2023-05-07T04:31:13;13.00;6.50
5980;DHT22;3016;50.308;8.258;2023-05-07T04:34:13;13.00;7.50
5980;DHT22;3016;50.308;8.258;2023-05-07T04:37:14;13.00;8.10
5980;DHT22;3016;50.308;8.258;2023-05-07T04:40:15;13.00;6.90
5980;DHT22;3016;50.308;8.258;2023-05-07T04:43:16;13.00;7.80
5980;DHT22;3016;50.308;8.258;2023-05-07T04:46:17;12.90;8.20
5980;DHT22;3016;50.308;8.258;2023-05-07T04:49:17;12.90;10.10
5980;DHT22;3016;50.308;8.258;2023-05-07T04:52:18;13.00;10.90
5980;DHT22;3016;50.308;8.258;2023-05-07T04:55:19;12.90;11.50
5980;DHT22;3016;50.308;8.258;2023-05-07T04:58:20;13.00;13.40
5980;DHT22;3016;50.308;8.258;2023-05-07T05:01:20;13.00;12.20
5980;DHT22;3016;50.308;8.258;2023-05-07T05:04:21;13.00;10.50
5980;DHT22;3016;50.308;8.258;2023-05-07T05:07:22;13.10;12.20
5980;DHT22;3016;50.308;8.258;2023-05-07T05:10:22;13.10;9.80
5980;DHT22;3016;50.308;8.258;2023-05-07T05:13:23;13.10;10.00
5980;DHT22;3016;50.308;8.258;2023-05-07T05:16:24;13.20;10.80
5980;DHT22;3016;50.308;8.258;2023-05-07T05:19:24;13.20;8.90
5980;DHT22;3016;50.308;8.258;2023-05-07T05:22:25;13.30;9.60
5980;DHT22;3016;50.308;8.258;2023-05-07T05:25:26;13.30;10.40
5980;DHT22;3016;50.308;8.258;2023-05-07T05:28:27;13.30;7.70
5980;DHT22;3016;50.308;8.258;2023-05-07T05:31:28;13.40;4.80
5980;DHT22;3016;50.308;8.258;2023-05-07T05:34:29;13.40;3.30
5980;DHT22;3016;50.308;8.258;2023-05-07T05:37:30;13.40;1.00
5980;DHT22;3016;50.308;8.258;2023-05-07T05:40:31;13.50;1.00
5980;DHT22;3016;50.308;8.258;2023-05-07T05:43:33;13.60;1.00
5980;DHT22;3016;50.308;8.258;2023-05-07T05:46:34;13.70;1.00
5980;DHT22;3016;50.308;8.258;2023-05-07T05:49:35;13.80;1.00
5980;DHT22;3016;50.308;8.258;2023-05-07T05:52:36;13.80;1.00
5980;DHT22;3016;50.308;8.258;2023-05-07T05:55:37;13.90;1.00
5980;DHT22;3016;50.308;8.258;2023-05-07T05:58:38;14.00;1.00
5980;DHT22;3016;50.308;8.258;2023-05-07T06:01:38;14.00;1.00
5980;DHT22;3016;50.308;8.258;2023-05-07T06:04:39;14.10;1.00
5980;DHT22;3016;50.308;8.258;2023-05-07T06:07:40;14.20;1.00
5980;DHT22;3016;50.308;8.258;2023-05-07T06:10:41;14.20;1.00
5980;DHT22;3016;50.308;8.258;2023-05-07T06:13:41;14.20;1.00
5980;DHT22;3016;50.308;8.258;2023-05-07T06:16:42;14.20;1.00
5980;DHT22;3016;50.308;8.258;2023-05-07T06:19:43;14.30;1.00
5980;DHT22;3016;50.308;8.258;2023-05-07T06:22:44;14.40;1.00
5980;DHT22;3016;50.308;8.258;2023-05-07T06:25:51;14.50;1.00
5980;DHT22;3016;50.308;8.258;2023-05-07T06:28:52;14.60;1.00
5980;DHT22;3016;50.308;8.258;2023-05-07T06:31:53;14.70;1.00
5980;DHT22;3016;50.308;8.258;2023-05-07T06:34:54;14.90;1.00
5980;DHT22;3016;50.308;8.258;2023-05-07T06:37:54;15.00;1.00
5980;DHT22;3016;50.308;8.258;2023-05-07T06:40:55;15.00;1.00
5980;DHT22;3016;50.308;8.258;2023-05-07T06:43:57;15.20;1.00
5980;DHT22;3016;50.308;8.258;2023-05-07T06:46:58;15.30;1.00
5980;DHT22;3016;50.308;8.258;2023-05-07T06:49:58;15.50;1.00
5980;DHT22;3016;50.308;8.258;2023-05-07T06:52:59;15.60;1.00
5980;DHT22;3016;50.308;8.258;2023-05-07T06:56:00;15.60;1.00
5980;DHT22;3016;50.308;8.258;2023-05-07T06:59:02;15.80;1.00
5980;DHT22;3016;50.308;8.258;2023-05-07T07:02:02;15.80;1.00
5980;DHT22;3016;50.308;8.258;2023-05-07T07:05:03;15.90;1.00
5980;DHT22;3016;50.308;8.258;2023-05-07T07:08:05;16.20;1.00
5980;DHT22;3016;50.308;8.258;2023-05-07T07:11:06;16.80;1.00
5980;DHT22;3016;50.308;8.258;2023-05-07T07:14:07;17.10;1.00
5980;DHT22;3016;50.308;8.258;2023-05-07T07:17:07;17.40;1.00
5980;DHT22;3016;50.308;8.258;2023-05-07T07:20:09;17.60;1.00
5980;DHT22;3016;50.308;8.258;2023-05-07T07:23:10;17.70;1.00
5980;DHT22;3016;50.308;8.258;2023-05-07T07:26:11;17.70;1.00
5980;DHT22;3016;50.308;8.258;2023-05-07T07:29:12;17.50;1.00
5980;DHT22;3016;50.308;8.258;2023-05-07T07:32:13;17.50;1.00
5980;DHT22;3016;50.308;8.258;2023-05-07T07:35:14;17.50;1.00
5980;DHT22;3016;50.308;8.258;2023-05-07T07:38:16;17.50;1.00
5980;DHT22;3016;50.308;8.258;2023-05-07T07:41:17;17.60;1.00
5980;DHT22;3016;50.308;8.258;2023-05-07T07:44:17;17.50;1.00
5980;DHT22;3016;50.308;8.258;2023-05-07T07:47:18;17.60;1.00
5980;DHT22;3016;50.308;8.258;2023-05-07T07:50:19;17.70;1.00
5980;DHT22;3016;50.308;8.258;2023-05-07T07:53:20;17.80;1.00
5980;DHT22;3016;50.308;8.258;2023-05-07T07:56:21;17.90;1.00
5980;DHT22;3016;50.308;8.258;2023-05-07T07:59:22;18.00;1.00
5980;DHT22;3016;50.308;8.258;2023-05-07T08:02:23;18.00;1.00
5980;DHT22;3016;50.308;8.258;2023-05-07T08:05:24;18.20;1.00
5980;DHT22;3016;50.308;8.258;2023-05-07T08:08:25;18.20;1.00
5980;DHT22;3016;50.308;8.258;2023-05-07T08:11:26;18.30;1.00
5980;DHT22;3016;50.308;8.258;2023-05-07T08:14:27;18.30;1.00
5980;DHT22;3016;50.308;8.258;2023-05-07T08:17:29;18.30;1.00
5980;DHT22;3016;50.308;8.258;2023-05-07T08:20:30;18.30;1.00
5980;DHT22;3016;50.308;8.258;2023-05-07T08:23:31;18.30;1.00
5980;DHT22;3016;50.308;8.258;2023-05-07T08:26:32;18.50;1.00
5980;DHT22;3016;50.308;8.258;2023-05-07T08:29:32;18.40;1.00
5980;DHT22;3016;50.308;8.258;2023-05-07T08:32:33;18.40;1.00
5980;DHT22;3016;50.308;8.258;2023-05-07T08:35:34;18.50;1.00
5980;DHT22;3016;50.308;8.258;2023-05-07T08:38:35;18.60;1.00
5980;DHT22;3016;50.308;8.258;2023-05-07T08:41:36;18.70;1.00
5980;DHT22;3016;50.308;8.258;2023-05-07T08:44:38;18.90;1.00
5980;DHT22;3016;50.308;8.258;2023-05-07T08:47:43;18.90;1.00
5980;DHT22;3016;50.308;8.258;2023-05-07T08:50:45;19.00;1.00
5980;DHT22;3016;50.308;8.258;2023-05-07T08:53:48;19.10;1.00
5980;DHT22;3016;50.308;8.258;2023-05-07T08:56:50;19.10;1.00
5980;DHT22;3016;50.308;8.258;2023-05-07T08:59:51;19.20;1.00
5980;DHT22;3016;50.308;8.258;2023-05-07T09:02:53;19.30;1.00
5980;DHT22;3016;50.308;8.258;2023-05-07T09:05:54;19.60;1.00
5980;DHT22;3016;50.308;8.258;2023-05-07T09:08:56;19.70;1.00
5980;DHT22;3016;50.308;8.258;2023-05-07T09:11:58;19.90;1.00
5980;DHT22;3016;50.308;8.258;2023-05-07T09:15:00;19.90;1.00
5980;DHT22;3016;50.308;8.258;2023-05-07T09:18:01;20.10;1.00
5980;DHT22;3016;50.308;8.258;2023-05-07T09:21:01;19.90;1.00
5980;DHT22;3016;50.308;8.258;2023-05-07T09:24:02;19.80;1.00
5980;DHT22;3016;50.308;8.258;2023-05-07T09:27:07;19.60;1.00
5980;DHT22;3016;50.308;8.258;2023-05-07T09:30:09;19.80;1.00
5980;DHT22;3016;50.308;8.258;2023-05-07T09:33:10;20.10;1.00
5980;DHT22;3016;50.308;8.258;2023-05-07T09:36:12;20.40;1.00
5980;DHT22;3016;50.308;8.258;2023-05-07T09:39:13;20.40;1.00
5980;DHT22;3016;50.308;8.258;2023-05-07T09:42:14;20.50;1.00
5980;DHT22;3016;50.308;8.258;2023-05-07T09:45:27;20.40;1.00
5980;DHT22;3016;50.308;8.258;2023-05-07T09:48:29;20.70;1.00
5980;DHT22;3016;50.308;8.258;2023-05-07T09:51:50;21.20;1.00
5980;DHT22;3016;50.308;8.258;2023-05-07T09:54:53;21.10;1.00
5980;DHT22;3016;50.308;8.258;2023-05-07T09:57:55;20.90;1.00
5980;DHT22;3016;50.308;8.258;2023-05-07T10:00:57;20.90;1.00
5980;DHT22;3016;50.308;8.258;2023-05-07T10:03:59;21.00;1.00
5980;DHT22;3016;50.308;8.258;2023-05-07T10:07:03;20.90;1.00
5980;DHT22;3016;50.308;8.258;2023-05-07T10:10:06;20.90;1.00
5980;DHT22;3016;50.308;8.258;2023-05-07T10:13:09;21.00;1.00
5980;DHT22;3016;50.308;8.258;2023-05-07T10:16:11;20.90;1.00
5980;DHT22;3016;50.308;8.258;2023-05-07T10:19:12;20.90;1.00
5980;DHT22;3016;50.308;8.258;2023-05-07T10:22:16;21.10;1.00
5980;DHT22;3016;50.308;8.258;2023-05-07T10:25:21;21.10;1.00
5980;DHT22;3016;50.308;8.258;2023-05-07T10:28:24;21.00;1.00
5980;DHT22;3016;50.308;8.258;2023-05-07T10:34:50;20.90;1.00
5980;DHT22;3016;50.308;8.258;2023-05-07T10:37:54;21.00;1.00
5980;DHT22;3016;50.308;8.258;2023-05-07T10:40:55;21.00;1.00
5980;DHT22;3016;50.308;8.258;2023-05-07T10:43:56;21.10;1.00
5980;DHT22;3016;50.308;8.258;2023-05-07T10:47:07;21.20;1.00
5980;DHT22;3016;50.308;8.258;2023-05-07T11:06:13;21.60;1.00
5980;DHT22;3016;50.308;8.258;2023-05-07T11:09:15;21.70;1.00
5980;DHT22;3016;50.308;8.258;2023-05-07T11:12:17;21.60;1.00
5980;DHT22;3016;50.308;8.258;2023-05-07T11:15:40;21.90;1.00
5980;DHT22;3016;50.308;8.258;2023-05-07T11:18:48;22.10;1.00
5980;DHT22;3016;50.308;8.258;2023-05-07T11:21:50;22.20;1.00
5980;DHT22;3016;50.308;8.258;2023-05-07T11:24:51;22.20;1.00
5980;DHT22;3016;50.308;8.258;2023-05-07T11:27:53;22.00;1.00
5980;DHT22;3016;50.308;8.258;2023-05-07T11:30:54;22.20;1.00
5980;DHT22;3016;50.308;8.258;2023-05-07T11:33:55;22.50;1.00
5980;DHT22;3016;50.308;8.258;2023-05-07T11:36:55;22.60;1.00
5980;DHT22;3016;50.308;8.258;2023-05-07T11:43:12;22.50;1.00
5980;DHT22;3016;50.308;8.258;2023-05-07T11:46:12;22.50;1.00
5980;DHT22;3016;50.308;8.258;2023-05-07T11:49:14;22.40;1.00
5980;DHT22;3016;50.308;8.258;2023-05-07T11:52:17;22.40;1.00
5980;DHT22;3016;50.308;8.258;2023-05-07T11:55:18;22.40;1.00
5980;DHT22;3016;50.308;8.258;2023-05-07T11:58:24;22.20;1.00
5980;DHT22;3016;50.308;8.258;2023-05-07T12:01:25;22.10;1.00
5980;DHT22;3016;50.308;8.258;2023-05-07T12:04:26;22.00;1.00
5980;DHT22;3016;50.308;8.258;2023-05-07T12:07:29;21.90;1.00
5980;DHT22;3016;50.308;8.258;2023-05-07T12:10:30;22.00;1.00
5980;DHT22;3016;50.308;8.258;2023-05-07T12:13:30;21.90;1.00
5980;DHT22;3016;50.308;8.258;2023-05-07T12:16:31;22.00;1.00
5980;DHT22;3016;50.308;8.258;2023-05-07T12:19:34;22.00;1.00
5980;DHT22;3016;50.308;8.258;2023-05-07T12:22:36;22.00;1.00
5980;DHT22;3016;50.308;8.258;2023-05-07T12:25:39;22.10;1.00
5980;DHT22;3016;50.308;8.258;2023-05-07T12:28:41;22.10;1.00
5980;DHT22;3016;50.308;8.258;2023-05-07T12:31:42;22.40;1.00
5980;DHT22;3016;50.308;8.258;2023-05-07T12:34:44;22.60;1.00
5980;DHT22;3016;50.308;8.258;2023-05-07T12:37:54;22.70;1.00
5980;DHT22;3016;50.308;8.258;2023-05-07T12:40:56;22.70;1.00
5980;DHT22;3016;50.308;8.258;2023-05-07T12:43:57;22.60;1.00
5980;DHT22;3016;50.308;8.258;2023-05-07T12:47:01;22.70;1.00
5980;DHT22;3016;50.308;8.258;2023-05-07T12:50:05;22.90;1.00
5980;DHT22;3016;50.308;8.258;2023-05-07T12:53:07;22.90;1.00
5980;DHT22;3016;50.308;8.258;2023-05-07T12:56:11;22.90;1.00
5980;DHT22;3016;50.308;8.258;2023-05-07T12:59:12;23.00;1.00
5980;DHT22;3016;50.308;8.258;2023-05-07T13:02:13;23.10;1.00
5980;DHT22;3016;50.308;8.258;2023-05-07T13:05:13;23.00;1.00
5980;DHT22;3016;50.308;8.258;2023-05-07T13:08:24;22.90;1.00
5980;DHT22;3016;50.308;8.258;2023-05-07T13:11:26;22.50;1.00
5980;DHT22;3016;50.308;8.258;2023-05-07T13:14:26;22.40;1.00
5980;DHT22;3016;50.308;8.258;2023-05-07T13:17:27;22.30;1.00
5980;DHT22;3016;50.308;8.258;2023-05-07T13:20:28;22.20;1.00
5980;DHT22;3016;50.308;8.258;2023-05-07T13:23:28;22.20;1.00
5980;DHT22;3016;50.308;8.258;2023-05-07T13:26:31;22.10;1.00
5980;DHT22;3016;50.308;8.258;2023-05-07T13:29:32;22.20;1.00
5980;DHT22;3016;50.308;8.258;2023-05-07T13:32:32;22.20;1.00
5980;DHT22;3016;50.308;8.258;2023-05-07T13:35:33;22.30;1.00
5980;DHT22;3016;50.308;8.258;2023-05-07T13:38:34;22.40;1.00
5980;DHT22;3016;50.308;8.258;2023-05-07T13:41:35;22.70;1.00
5980;DHT22;3016;50.308;8.258;2023-05-07T13:44:37;23.10;1.00
5980;DHT22;3016;50.308;8.258;2023-05-07T13:47:37;23.40;1.00
5980;DHT22;3016;50.308;8.258;2023-05-07T13:50:38;23.50;1.00
5980;DHT22;3016;50.308;8.258;2023-05-07T13:53:39;23.70;1.00
5980;DHT22;3016;50.308;8.258;2023-05-07T13:56:40;23.90;1.00
5980;DHT22;3016;50.308;8.258;2023-05-07T13:59:41;24.10;1.00
5980;DHT22;3016;50.308;8.258;2023-05-07T14:02:41;24.40;1.00
5980;DHT22;3016;50.308;8.258;2023-05-07T14:05:42;24.70;1.00
5980;DHT22;3016;50.308;8.258;2023-05-07T14:08:43;24.80;1.00
5980;DHT22;3016;50.308;8.258;2023-05-07T14:11:44;24.60;1.00
5980;DHT22;3016;50.308;8.258;2023-05-07T14:14:44;24.50;1.00
5980;DHT22;3016;50.308;8.258;2023-05-07T14:17:47;24.50;1.00
5980;DHT22;3016;50.308;8.258;2023-05-07T14:20:48;24.40;1.00
5980;DHT22;3016;50.308;8.258;2023-05-07T14:23:49;24.50;1.00
5980;DHT22;3016;50.308;8.258;2023-05-07T14:26:50;24.70;1.00
5980;DHT22;3016;50.308;8.258;2023-05-07T14:29:51;24.60;1.00
5980;DHT22;3016;50.308;8.258;2023-05-07T14:32:51;24.40;1.00
5980;DHT22;3016;50.308;8.258;2023-05-07T14:35:52;24.00;1.00
5980;DHT22;3016;50.308;8.258;2023-05-07T14:38:53;23.90;1.00
5980;DHT22;3016;50.308;8.258;2023-05-07T14:41:55;23.80;1.00
5980;DHT22;3016;50.308;8.258;2023-05-07T14:44:56;23.70;1.00
5980;DHT22;3016;50.308;8.258;2023-05-07T14:47:57;23.60;1.00
5980;DHT22;3016;50.308;8.258;2023-05-07T14:50:57;23.40;1.00
5980;DHT22;3016;50.308;8.258;2023-05-07T14:53:58;23.40;1.00
5980;DHT22;3016;50.308;8.258;2023-05-07T14:57:00;23.30;1.00
5980;DHT22;3016;50.308;8.258;2023-05-07T15:00:03;23.00;1.00
5980;DHT22;3016;50.308;8.258;2023-05-07T15:03:09;22.60;1.00
5980;DHT22;3016;50.308;8.258;2023-05-07T15:06:10;22.40;1.00
5980;DHT22;3016;50.308;8.258;2023-05-07T15:09:11;22.40;1.00
5980;DHT22;3016;50.308;8.258;2023-05-07T15:12:13;22.20;1.00
5980;DHT22;3016;50.308;8.258;2023-05-07T15:15:14;22.00;1.00
5980;DHT22;3016;50.308;8.258;2023-05-07T15:18:15;22.00;1.00
5980;DHT22;3016;50.308;8.258;2023-05-07T15:21:16;21.70;1.00
5980;DHT22;3016;50.308;8.258;2023-05-07T15:24:17;21.70;1.00
5980;DHT22;3016;50.308;8.258;2023-05-07T15:27:17;21.80;1.00
5980;DHT22;3016;50.308;8.258;2023-05-07T15:30:18;22.00;1.00
5980;DHT22;3016;50.308;8.258;2023-05-07T15:33:20;22.20;1.00
5980;DHT22;3016;50.308;8.258;2023-05-07T15:36:21;22.30;1.00
5980;DHT22;3016;50.308;8.258;2023-05-07T15:39:21;22.50;1.00
5980;DHT22;3016;50.308;8.258;2023-05-07T15:42:22;22.40;1.00
5980;DHT22;3016;50.308;8.258;2023-05-07T15:45:23;22.50;1.00
5980;DHT22;3016;50.308;8.258;2023-05-07T15:48:24;22.40;1.00
5980;DHT22;3016;50.308;8.258;2023-05-07T15:51:25;22.50;1.00
5980;DHT22;3016;50.308;8.258;2023-05-07T15:54:26;22.30;1.00
5980;DHT22;3016;50.308;8.258;2023-05-07T15:57:26;22.40;1.00
5980;DHT22;3016;50.308;8.258;2023-05-07T16:00:27;22.30;1.00
5980;DHT22;3016;50.308;8.258;2023-05-07T16:03:28;22.30;1.00
5980;DHT22;3016;50.308;8.258;2023-05-07T16:06:29;22.20;1.00
5980;DHT22;3016;50.308;8.258;2023-05-07T16:09:30;22.20;1.00
5980;DHT22;3016;50.308;8.258;2023-05-07T16:12:32;22.20;1.00
5980;DHT22;3016;50.308;8.258;2023-05-07T16:15:33;22.20;1.00
5980;DHT22;3016;50.308;8.258;2023-05-07T16:18:34;22.10;1.00
5980;DHT22;3016;50.308;8.258;2023-05-07T16:21:36;22.20;1.00
5980;DHT22;3016;50.308;8.258;2023-05-07T16:24:37;22.20;1.00
5980;DHT22;3016;50.308;8.258;2023-05-07T16:27:38;22.20;1.00
5980;DHT22;3016;50.308;8.258;2023-05-07T16:30:39;22.20;1.00
5980;DHT22;3016;50.308;8.258;2023-05-07T16:33:40;22.10;1.00
5980;DHT22;3016;50.308;8.258;2023-05-07T16:36:41;22.10;1.00
5980;DHT22;3016;50.308;8.258;2023-05-07T16:39:41;21.90;1.00
5980;DHT22;3016;50.308;8.258;2023-05-07T16:42:42;21.90;1.00
5980;DHT22;3016;50.308;8.258;2023-05-07T16:45:43;21.90;1.00
5980;DHT22;3016;50.308;8.258;2023-05-07T16:48:44;21.90;1.00
5980;DHT22;3016;50.308;8.258;2023-05-07T16:51:45;21.90;1.00
5980;DHT22;3016;50.308;8.258;2023-05-07T16:54:46;21.90;1.00
5980;DHT22;3016;50.308;8.258;2023-05-07T16:57:47;21.80;1.00
5980;DHT22;3016;50.308;8.258;2023-05-07T17:00:48;21.70;1.00
5980;DHT22;3016;50.308;8.258;2023-05-07T17:03:48;21.70;1.00
5980;DHT22;3016;50.308;8.258;2023-05-07T17:06:49;21.40;1.00
5980;DHT22;3016;50.308;8.258;2023-05-07T17:09:50;21.20;1.00
5980;DHT22;3016;50.308;8.258;2023-05-07T17:12:51;21.10;1.00
5980;DHT22;3016;50.308;8.258;2023-05-07T17:15:52;20.90;1.00
5980;DHT22;3016;50.308;8.258;2023-05-07T17:18:52;20.80;1.00
5980;DHT22;3016;50.308;8.258;2023-05-07T17:21:53;20.70;1.00
5980;DHT22;3016;50.308;8.258;2023-05-07T17:24:54;20.70;1.00
5980;DHT22;3016;50.308;8.258;2023-05-07T17:27:55;20.70;1.00
5980;DHT22;3016;50.308;8.258;2023-05-07T17:30:55;20.70;1.00
5980;DHT22;3016;50.308;8.258;2023-05-07T17:33:56;20.60;1.00
5980;DHT22;3016;50.308;8.258;2023-05-07T17:36:58;20.40;1.00
5980;DHT22;3016;50.308;8.258;2023-05-07T17:39:59;19.80;1.00
5980;DHT22;3016;50.308;8.258;2023-05-07T17:43:01;19.30;1.00
5980;DHT22;3016;50.308;8.258;2023-05-07T17:46:01;19.10;1.00
5980;DHT22;3016;50.308;8.258;2023-05-07T17:49:02;18.70;1.00
5980;DHT22;3016;50.308;8.258;2023-05-07T17:52:03;18.50;1.00
5980;DHT22;3016;50.308;8.258;2023-05-07T17:55:04;18.40;1.00
5980;DHT22;3016;50.308;8.258;2023-05-07T17:58:06;18.40;1.00
5980;DHT22;3016;50.308;8.258;2023-05-07T18:01:06;18.30;1.00
5980;DHT22;3016;50.308;8.258;2023-05-07T18:04:07;18.20;1.00
5980;DHT22;3016;50.308;8.258;2023-05-07T18:07:08;18.00;1.00
5980;DHT22;3016;50.308;8.258;2023-05-07T18:10:09;17.90;1.00
5980;DHT22;3016;50.308;8.258;2023-05-07T18:13:10;17.70;1.00
5980;DHT22;3016;50.308;8.258;2023-05-07T18:16:10;17.70;1.00
5980;DHT22;3016;50.308;8.258;2023-05-07T18:19:11;17.50;1.00
5980;DHT22;3016;50.308;8.258;2023-05-07T18:22:12;17.40;1.00
5980;DHT22;3016;50.308;8.258;2023-05-07T18:25:12;17.30;1.00
5980;DHT22;3016;50.308;8.258;2023-05-07T18:28:13;17.30;1.00
5980;DHT22;3016;50.308;8.258;2023-05-07T18:31:14;17.10;1.00
5980;DHT22;3016;50.308;8.258;2023-05-07T18:34:15;17.10;1.00
5980;DHT22;3016;50.308;8.258;2023-05-07T18:37:15;17.00;1.30
5980;DHT22;3016;50.308;8.258;2023-05-07T18:40:16;16.90;1.00
5980;DHT22;3016;50.308;8.258;2023-05-07T18:43:20;16.90;4.30
5980;DHT22;3016;50.308;8.258;2023-05-07T18:46:21;16.90;1.80
5980;DHT22;3016;50.308;8.258;2023-05-07T18:49:22;16.90;1.20
5980;DHT22;3016;50.308;8.258;2023-05-07T18:52:22;16.90;5.10
5980;DHT22;3016;50.308;8.258;2023-05-07T18:55:26;16.80;8.90
5980;DHT22;3016;50.308;8.258;2023-05-07T18:58:26;16.70;19.70
5980;DHT22;3016;50.308;8.258;2023-05-07T19:01:27;16.60;25.10
5980;DHT22;3016;50.308;8.258;2023-05-07T19:04:29;16.50;27.10
5980;DHT22;3016;50.308;8.258;2023-05-07T19:07:29;16.40;33.60
5980;DHT22;3016;50.308;8.258;2023-05-07T19:10:30;16.40;37.90
5980;DHT22;3016;50.308;8.258;2023-05-07T19:13:31;16.30;42.00
5980;DHT22;3016;50.308;8.258;2023-05-07T19:16:31;16.30;46.40
5980;DHT22;3016;50.308;8.258;2023-05-07T19:19:32;16.20;49.10
5980;DHT22;3016;50.308;8.258;2023-05-07T19:22:33;16.10;49.30
5980;DHT22;3016;50.308;8.258;2023-05-07T19:25:33;16.10;50.30
5980;DHT22;3016;50.308;8.258;2023-05-07T19:28:38;16.00;49.80
5980;DHT22;3016;50.308;8.258;2023-05-07T19:31:39;16.00;53.40
5980;DHT22;3016;50.308;8.258;2023-05-07T19:34:39;15.90;54.90
5980;DHT22;3016;50.308;8.258;2023-05-07T19:37:40;15.90;55.70
5980;DHT22;3016;50.308;8.258;2023-05-07T19:40:41;15.90;58.70
5980;DHT22;3016;50.308;8.258;2023-05-07T19:43:41;15.60;50.40
5980;DHT22;3016;50.308;8.258;2023-05-07T19:46:42;15.50;52.40
5980;DHT22;3016;50.308;8.258;2023-05-07T19:49:45;15.40;49.60
5980;DHT22;3016;50.308;8.258;2023-05-07T19:52:46;15.20;48.90
5980;DHT22;3016;50.308;8.258;2023-05-07T19:55:47;15.20;51.60
5980;DHT22;3016;50.308;8.258;2023-05-07T19:58:47;15.10;51.10
5980;DHT22;3016;50.308;8.258;2023-05-07T20:01:48;15.00;56.00
5980;DHT22;3016;50.308;8.258;2023-05-07T20:04:48;15.00;54.60
5980;DHT22;3016;50.308;8.258;2023-05-07T20:07:49;14.90;53.80
5980;DHT22;3016;50.308;8.258;2023-05-07T20:10:50;14.90;57.90
5980;DHT22;3016;50.308;8.258;2023-05-07T20:13:51;14.90;62.10
5980;DHT22;3016;50.308;8.258;2023-05-07T20:16:52;14.80;63.90
5980;DHT22;3016;50.308;8.258;2023-05-07T20:19:53;14.80;63.80
5980;DHT22;3016;50.308;8.258;2023-05-07T20:22:54;14.90;66.90
5980;DHT22;3016;50.308;8.258;2023-05-07T20:25:55;14.90;67.00